sensor_id;sensor_type;location;lat;lon;timestamp;pressure;altitude;pressure_sealevel;temperature;humidity
75221;BME280;63802;53.232;6.570;2024-01-11T00:00:44;103542.97;;;-6.73;100.00
75221;BME280;63802;53.232;6.570;2024-01-11T00:03:09;103539.19;;;-6.78;100.00
75221;BME280;63802;53.232;6.570;2024-01-11T00:05:35;103540.56;;;-6.83;100.00
75221;BME280;63802;53.232;6.570;2024-01-11T00:08:00;103537.19;;;-6.91;100.00
75221;BME280;63802;53.232;6.570;2024-01-11T00:10:25;103522.69;;;-7.03;100.00
75221;BME280;63802;53.232;6.570;2024-01-11T00:12:51;103507.47;;;-7.09;100.00
75221;BME280;63802;53.232;6.570;2024-01-11T00:15:16;103539.31;;;-6.87;100.00
75221;BME280;63802;53.232;6.570;2024-01-11T00:17:42;103538.91;;;-6.84;100.00
75221;BME280;63802;53.232;6.570;2024-01-11T00:20:07;103547.06;;;-6.85;100.00
75221;BME280;63802;53.232;6.570;2024-01-11T00:22:33;103540.66;;;-6.91;100.00
75221;BME280;63802;53.232;6.570;2024-01-11T00:24:58;103550.63;;;-6.93;100.00
75221;BME280;63802;53.232;6.570;2024-01-11T00:27:24;103526.25;;;-7.11;100.00
75221;BME280;63802;53.232;6.570;2024-01-11T00:29:49;103541.38;;;-6.97;100.00
75221;BME280;63802;53.232;6.570;2024-01-11T00:32:15;103536.34;;;-6.92;100.00
75221;BME280;63802;53.232;6.570;2024-01-11T00:34:40;103504.63;;;-7.08;100.00
75221;BME280;63802;53.232;6.570;2024-01-11T00:37:06;103547.63;;;-6.90;100.00
75221;BME280;63802;53.232;6.570;2024-01-11T00:39:31;103533.50;;;-6.90;100.00
75221;BME280;63802;53.232;6.570;2024-01-11T00:41:57;103523.63;;;-6.96;100.00
75221;BME280;63802;53.232;6.570;2024-01-11T00:44:22;103538.47;;;-6.87;100.00
75221;BME280;63802;53.232;6.570;2024-01-11T00:46:48;103532.34;;;-6.88;100.00
75221;BME280;63802;53.232;6.570;2024-01-11T00:49:13;103529.06;;;-6.75;100.00
75221;BME280;63802;53.232;6.570;2024-01-11T00:51:38;103520.53;;;-6.85;100.00
75221;BME280;63802;53.232;6.570;2024-01-11T00:54:04;103526.75;;;-6.78;100.00
75221;BME280;63802;53.232;6.570;2024-01-11T00:56:30;103514.59;;;-6.72;100.00
75221;BME280;63802;53.232;6.570;2024-01-11T00:58:55;103498.59;;;-6.79;100.00
75221;BME280;63802;53.232;6.570;2024-01-11T01:01:20;103504.00;;;-6.72;100.00
75221;BME280;63802;53.232;6.570;2024-01-11T01:03:46;103504.63;;;-6.70;100.00
75221;BME280;63802;53.232;6.570;2024-01-11T01:06:12;103507.84;;;-6.60;100.00
75221;BME280;63802;53.232;6.570;2024-01-11T01:08:37;103510.78;;;-6.55;100.00
75221;BME280;63802;53.232;6.570;2024-01-11T01:11:03;103509.84;;;-6.62;100.00
75221;BME280;63802;53.232;6.570;2024-01-11T01:13:28;103512.59;;;-6.70;100.00
75221;BME280;63802;53.232;6.570;2024-01-11T01:15:54;103518.53;;;-6.68;100.00
75221;BME280;63802;53.232;6.570;2024-01-11T01:18:19;103520.75;;;-6.72;100.00
75221;BME280;63802;53.232;6.570;2024-01-11T01:20:45;103515.53;;;-6.65;100.00
75221;BME280;63802;53.232;6.570;2024-01-11T01:23:13;103514.25;;;-6.69;100.00
75221;BME280;63802;53.232;6.570;2024-01-11T01:25:39;103512.94;;;-6.73;100.00
75221;BME280;63802;53.232;6.570;2024-01-11T01:28:05;103497.13;;;-6.82;100.00
75221;BME280;63802;53.232;6.570;2024-01-11T01:30:30;103511.31;;;-6.74;100.00
75221;BME280;63802;53.232;6.570;2024-01-11T01:32:56;103507.19;;;-6.77;100.00
75221;BME280;63802;53.232;6.570;2024-01-11T01:35:21;103515.94;;;-6.76;100.00
75221;BME280;63802;53.232;6.570;2024-01-11T01:37:47;103500.56;;;-6.81;100.00
75221;BME280;63802;53.232;6.570;2024-01-11T01:40:13;103487.84;;;-6.86;100.00
75221;BME280;63802;53.232;6.570;2024-01-11T01:42:46;103488.25;;;-6.89;100.00
75221;BME280;63802;53.232;6.570;2024-01-11T01:45:12;103504.69;;;-6.78;100.00
75221;BME280;63802;53.232;6.570;2024-01-11T01:47:40;103499.78;;;-6.82;100.00
75221;BME280;63802;53.232;6.570;2024-01-11T01:50:06;103499.38;;;-6.78;100.00
75221;BME280;63802;53.232;6.570;2024-01-11T01:52:33;103476.31;;;-6.93;100.00
75221;BME280;63802;53.232;6.570;2024-01-11T01:55:01;103496.66;;;-6.85;100.00
75221;BME280;63802;53.232;6.570;2024-01-11T01:57:26;103495.91;;;-6.94;100.00
75221;BME280;63802;53.232;6.570;2024-01-11T01:59:52;103498.56;;;-6.94;100.00
75221;BME280;63802;53.232;6.570;2024-01-11T02:02:21;103479.13;;;-7.09;100.00
75221;BME280;63802;53.232;6.570;2024-01-11T02:04:47;103503.59;;;-6.99;100.00
75221;BME280;63802;53.232;6.570;2024-01-11T02:07:13;103506.41;;;-7.00;100.00
75221;BME280;63802;53.232;6.570;2024-01-11T02:09:40;103486.16;;;-7.16;100.00
75221;BME280;63802;53.232;6.570;2024-01-11T02:12:05;103501.00;;;-7.07;100.00
75221;BME280;63802;53.232;6.570;2024-01-11T02:14:31;103492.41;;;-7.09;100.00
75221;BME280;63802;53.232;6.570;2024-01-11T02:16:57;103504.28;;;-7.05;100.00
75221;BME280;63802;53.232;6.570;2024-01-11T02:19:23;103498.06;;;-7.12;100.00
75221;BME280;63802;53.232;6.570;2024-01-11T02:21:52;103501.34;;;-7.10;100.00
75221;BME280;63802;53.232;6.570;2024-01-11T02:24:20;103504.38;;;-7.13;100.00
75221;BME280;63802;53.232;6.570;2024-01-11T02:27:03;103505.38;;;-7.14;100.00
75221;BME280;63802;53.232;6.570;2024-01-11T02:29:30;103497.13;;;-7.19;100.00
75221;BME280;63802;53.232;6.570;2024-01-11T02:32:01;103486.31;;;-7.32;100.00
75221;BME280;63802;53.232;6.570;2024-01-11T02:34:28;103488.28;;;-7.34;100.00
75221;BME280;63802;53.232;6.570;2024-01-11T02:36:54;103505.44;;;-7.22;100.00
75221;BME280;63802;53.232;6.570;2024-01-11T02:39:22;103510.44;;;-7.27;100.00
75221;BME280;63802;53.232;6.570;2024-01-11T02:41:49;103521.72;;;-7.25;100.00
75221;BME280;63802;53.232;6.570;2024-01-11T02:44:15;103516.13;;;-7.30;100.00
75221;BME280;63802;53.232;6.570;2024-01-11T02:46:41;103506.22;;;-7.36;100.00
75221;BME280;63802;53.232;6.570;2024-01-11T02:49:06;103526.72;;;-7.30;100.00
75221;BME280;63802;53.232;6.570;2024-01-11T02:51:32;103523.78;;;-7.35;100.00
75221;BME280;63802;53.232;6.570;2024-01-11T02:53:57;103521.59;;;-7.31;100.00
75221;BME280;63802;53.232;6.570;2024-01-11T02:56:23;103498.78;;;-7.40;100.00
75221;BME280;63802;53.232;6.570;2024-01-11T02:58:49;103505.88;;;-7.33;100.00
75221;BME280;63802;53.232;6.570;2024-01-11T03:01:14;103516.00;;;-7.36;100.00
75221;BME280;63802;53.232;6.570;2024-01-11T03:03:40;103487.97;;;-7.54;100.00
75221;BME280;63802;53.232;6.570;2024-01-11T03:06:05;103520.66;;;-7.38;100.00
75221;BME280;63802;53.232;6.570;2024-01-11T03:08:31;103516.22;;;-7.46;100.00
75221;BME280;63802;53.232;6.570;2024-01-11T03:10:56;103511.59;;;-7.44;100.00
75221;BME280;63802;53.232;6.570;2024-01-11T03:13:23;103522.59;;;-7.32;100.00
75221;BME280;63802;53.232;6.570;2024-01-11T03:15:48;103530.84;;;-7.27;100.00
75221;BME280;63802;53.232;6.570;2024-01-11T03:18:13;103512.53;;;-7.37;100.00
75221;BME280;63802;53.232;6.570;2024-01-11T03:20:39;103533.91;;;-7.16;100.00
75221;BME280;63802;53.232;6.570;2024-01-11T03:23:04;103499.31;;;-7.22;100.00
75221;BME280;63802;53.232;6.570;2024-01-11T03:25:30;103515.19;;;-7.00;100.00
75221;BME280;63802;53.232;6.570;2024-01-11T03:27:55;103498.63;;;-7.02;100.00
75221;BME280;63802;53.232;6.570;2024-01-11T03:30:21;103507.44;;;-6.87;100.00
75221;BME280;63802;53.232;6.570;2024-01-11T03:32:46;103504.34;;;-6.75;100.00
75221;BME280;63802;53.232;6.570;2024-01-11T03:35:12;103509.28;;;-6.72;100.00
75221;BME280;63802;53.232;6.570;2024-01-11T03:37:37;103510.22;;;-6.65;100.00
75221;BME280;63802;53.232;6.570;2024-01-11T03:40:03;103507.84;;;-6.60;100.00
75221;BME280;63802;53.232;6.570;2024-01-11T03:42:29;103491.72;;;-6.73;100.00
75221;BME280;63802;53.232;6.570;2024-01-11T03:44:54;103509.19;;;-6.64;100.00
75221;BME280;63802;53.232;6.570;2024-01-11T03:47:21;103507.44;;;-6.57;100.00
75221;BME280;63802;53.232;6.570;2024-01-11T03:49:51;103502.16;;;-6.57;100.00
75221;BME280;63802;53.232;6.570;2024-01-11T03:52:17;103492.75;;;-6.60;100.00
75221;BME280;63802;53.232;6.570;2024-01-11T03:54:42;103504.38;;;-6.46;100.00
75221;BME280;63802;53.232;6.570;2024-01-11T03:57:08;103496.41;;;-6.46;100.00
75221;BME280;63802;53.232;6.570;2024-01-11T03:59:33;103496.31;;;-6.38;100.00
75221;BME280;63802;53.232;6.570;2024-01-11T04:02:00;103484.94;;;-6.32;100.00
75221;BME280;63802;53.232;6.570;2024-01-11T04:04:25;103481.09;;;-6.30;100.00
75221;BME280;63802;53.232;6.570;2024-01-11T04:06:51;103484.91;;;-6.18;100.00
75221;BME280;63802;53.232;6.570;2024-01-11T04:09:19;103478.69;;;-6.10;100.00
75221;BME280;63802;53.232;6.570;2024-01-11T04:11:45;103477.91;;;-6.04;100.00
75221;BME280;63802;53.232;6.570;2024-01-11T04:14:11;103484.03;;;-5.89;100.00
75221;BME280;63802;53.232;6.570;2024-01-11T04:16:43;103467.81;;;-5.94;100.00
75221;BME280;63802;53.232;6.570;2024-01-11T04:19:09;103494.75;;;-5.76;100.00
75221;BME280;63802;53.232;6.570;2024-01-11T04:21:34;103498.72;;;-5.72;100.00
75221;BME280;63802;53.232;6.570;2024-01-11T04:24:00;103482.38;;;-5.69;100.00
75221;BME280;63802;53.232;6.570;2024-01-11T04:26:25;103495.78;;;-5.56;100.00
75221;BME280;63802;53.232;6.570;2024-01-11T04:28:52;103491.19;;;-5.47;100.00
75221;BME280;63802;53.232;6.570;2024-01-11T04:31:18;103484.41;;;-5.50;100.00
75221;BME280;63802;53.232;6.570;2024-01-11T04:33:44;103498.19;;;-5.39;100.00
75221;BME280;63802;53.232;6.570;2024-01-11T04:36:11;103504.91;;;-5.22;100.00
75221;BME280;63802;53.232;6.570;2024-01-11T04:38:37;103507.06;;;-5.11;100.00
75221;BME280;63802;53.232;6.570;2024-01-11T04:41:10;103486.53;;;-5.17;100.00
75221;BME280;63802;53.232;6.570;2024-01-11T04:43:40;103514.13;;;-4.97;100.00
75221;BME280;63802;53.232;6.570;2024-01-11T04:46:19;103514.84;;;-4.82;100.00
75221;BME280;63802;53.232;6.570;2024-01-11T04:48:45;103502.28;;;-4.95;100.00
75221;BME280;63802;53.232;6.570;2024-01-11T04:51:15;103529.22;;;-4.77;100.00
75221;BME280;63802;53.232;6.570;2024-01-11T04:53:41;103525.97;;;-4.72;100.00
75221;BME280;63802;53.232;6.570;2024-01-11T04:56:08;103517.22;;;-4.66;100.00
75221;BME280;63802;53.232;6.570;2024-01-11T04:58:39;103512.28;;;-4.69;100.00
75221;BME280;63802;53.232;6.570;2024-01-11T05:01:05;103517.72;;;-4.56;100.00
75221;BME280;63802;53.232;6.570;2024-01-11T05:03:31;103528.59;;;-4.51;100.00
75221;BME280;63802;53.232;6.570;2024-01-11T05:05:59;103481.09;;;-4.75;100.00
75221;BME280;63802;53.232;6.570;2024-01-11T05:08:26;103523.03;;;-4.56;100.00
75221;BME280;63802;53.232;6.570;2024-01-11T05:10:51;103529.22;;;-4.49;100.00
75221;BME280;63802;53.232;6.570;2024-01-11T05:13:17;103527.19;;;-4.47;100.00
75221;BME280;63802;53.232;6.570;2024-01-11T05:15:43;103532.09;;;-4.44;100.00
75221;BME280;63802;53.232;6.570;2024-01-11T05:18:09;103507.47;;;-4.52;100.00
75221;BME280;63802;53.232;6.570;2024-01-11T05:20:34;103523.72;;;-4.41;100.00
75221;BME280;63802;53.232;6.570;2024-01-11T05:23:00;103501.56;;;-4.48;100.00
75221;BME280;63802;53.232;6.570;2024-01-11T05:25:26;103515.81;;;-4.28;100.00
75221;BME280;63802;53.232;6.570;2024-01-11T05:27:52;103517.44;;;-4.27;100.00
75221;BME280;63802;53.232;6.570;2024-01-11T05:30:17;103511.50;;;-4.29;100.00
75221;BME280;63802;53.232;6.570;2024-01-11T05:32:43;103526.94;;;-4.18;100.00
75221;BME280;63802;53.232;6.570;2024-01-11T05:35:08;103506.78;;;-4.27;100.00
75221;BME280;63802;53.232;6.570;2024-01-11T05:37:36;103515.47;;;-4.12;100.00
75221;BME280;63802;53.232;6.570;2024-01-11T05:40:01;103497.63;;;-4.18;100.00
75221;BME280;63802;53.232;6.570;2024-01-11T05:42:27;103515.09;;;-4.02;100.00
75221;BME280;63802;53.232;6.570;2024-01-11T05:44:53;103506.91;;;-4.00;100.00
75221;BME280;63802;53.232;6.570;2024-01-11T05:47:18;103509.19;;;-3.97;100.00
75221;BME280;63802;53.232;6.570;2024-01-11T05:49:43;103498.13;;;-3.94;100.00
75221;BME280;63802;53.232;6.570;2024-01-11T05:52:09;103507.56;;;-3.85;100.00
75221;BME280;63802;53.232;6.570;2024-01-11T05:54:34;103502.47;;;-3.80;100.00
75221;BME280;63802;53.232;6.570;2024-01-11T05:57:00;103483.56;;;-3.85;100.00
75221;BME280;63802;53.232;6.570;2024-01-11T05:59:25;103491.19;;;-3.69;100.00
75221;BME280;63802;53.232;6.570;2024-01-11T06:01:51;103461.03;;;-3.76;100.00
75221;BME280;63802;53.232;6.570;2024-01-11T06:04:17;103509.69;;;-3.55;100.00
75221;BME280;63802;53.232;6.570;2024-01-11T06:06:42;103510.75;;;-3.49;100.00
75221;BME280;63802;53.232;6.570;2024-01-11T06:09:08;103473.78;;;-3.65;100.00
75221;BME280;63802;53.232;6.570;2024-01-11T06:11:35;103503.78;;;-3.44;100.00
75221;BME280;63802;53.232;6.570;2024-01-11T06:14:00;103483.63;;;-3.53;100.00
75221;BME280;63802;53.232;6.570;2024-01-11T06:16:26;103486.13;;;-3.38;100.00
75221;BME280;63802;53.232;6.570;2024-01-11T06:18:52;103452.88;;;-3.55;100.00
75221;BME280;63802;53.232;6.570;2024-01-11T06:21:18;103492.28;;;-3.31;100.00
75221;BME280;63802;53.232;6.570;2024-01-11T06:23:44;103473.59;;;-3.31;100.00
75221;BME280;63802;53.232;6.570;2024-01-11T06:26:09;103471.78;;;-3.24;100.00
75221;BME280;63802;53.232;6.570;2024-01-11T06:28:34;103473.00;;;-3.20;100.00
75221;BME280;63802;53.232;6.570;2024-01-11T06:31:03;103458.63;;;-3.12;100.00
75221;BME280;63802;53.232;6.570;2024-01-11T06:33:29;103466.41;;;-3.11;100.00
75221;BME280;63802;53.232;6.570;2024-01-11T06:35:54;103456.56;;;-3.10;100.00
75221;BME280;63802;53.232;6.570;2024-01-11T06:38:21;103479.13;;;-3.00;100.00
75221;BME280;63802;53.232;6.570;2024-01-11T06:40:48;103434.59;;;-3.12;100.00
75221;BME280;63802;53.232;6.570;2024-01-11T06:43:14;103454.91;;;-2.92;100.00
75221;BME280;63802;53.232;6.570;2024-01-11T06:45:39;103435.19;;;-2.91;100.00
75221;BME280;63802;53.232;6.570;2024-01-11T06:48:05;103418.75;;;-3.01;100.00
75221;BME280;63802;53.232;6.570;2024-01-11T06:50:31;103413.59;;;-3.02;100.00
75221;BME280;63802;53.232;6.570;2024-01-11T06:52:56;103436.41;;;-2.87;100.00
75221;BME280;63802;53.232;6.570;2024-01-11T06:55:22;103444.19;;;-2.79;100.00
75221;BME280;63802;53.232;6.570;2024-01-11T06:57:48;103452.22;;;-2.79;100.00
75221;BME280;63802;53.232;6.570;2024-01-11T07:00:13;103445.03;;;-2.85;100.00
75221;BME280;63802;53.232;6.570;2024-01-11T07:02:39;103438.06;;;-2.86;100.00
75221;BME280;63802;53.232;6.570;2024-01-11T07:05:05;103468.19;;;-2.65;100.00
75221;BME280;63802;53.232;6.570;2024-01-11T07:07:31;103477.88;;;-2.64;100.00
75221;BME280;63802;53.232;6.570;2024-01-11T07:09:58;103467.59;;;-2.67;100.00
75221;BME280;63802;53.232;6.570;2024-01-11T07:12:23;103483.59;;;-2.61;100.00
75221;BME280;63802;53.232;6.570;2024-01-11T07:14:49;103480.53;;;-2.64;100.00
75221;BME280;63802;53.232;6.570;2024-01-11T07:17:14;103465.94;;;-2.68;100.00
75221;BME280;63802;53.232;6.570;2024-01-11T07:19:40;103486.06;;;-2.53;100.00
75221;BME280;63802;53.232;6.570;2024-01-11T07:22:05;103491.81;;;-2.49;100.00
75221;BME280;63802;53.232;6.570;2024-01-11T07:24:31;103449.09;;;-2.62;100.00
75221;BME280;63802;53.232;6.570;2024-01-11T07:27:05;103474.94;;;-2.43;100.00
75221;BME280;63802;53.232;6.570;2024-01-11T07:29:31;103465.25;;;-2.44;100.00
75221;BME280;63802;53.232;6.570;2024-01-11T07:31:58;103476.75;;;-2.37;100.00
75221;BME280;63802;53.232;6.570;2024-01-11T07:34:23;103466.69;;;-2.35;100.00
75221;BME280;63802;53.232;6.570;2024-01-11T07:36:50;103470.81;;;-2.33;100.00
75221;BME280;63802;53.232;6.570;2024-01-11T07:39:16;103465.84;;;-2.29;100.00
75221;BME280;63802;53.232;6.570;2024-01-11T07:41:42;103469.72;;;-2.25;100.00
75221;BME280;63802;53.232;6.570;2024-01-11T07:44:07;103460.47;;;-2.29;100.00
75221;BME280;63802;53.232;6.570;2024-01-11T07:46:33;103477.94;;;-2.20;100.00
75221;BME280;63802;53.232;6.570;2024-01-11T07:48:59;103447.13;;;-2.29;100.00
75221;BME280;63802;53.232;6.570;2024-01-11T07:51:28;103458.00;;;-2.24;100.00
75221;BME280;63802;53.232;6.570;2024-01-11T07:53:53;103458.78;;;-2.17;100.00
75221;BME280;63802;53.232;6.570;2024-01-11T07:56:18;103456.97;;;-2.23;100.00
75221;BME280;63802;53.232;6.570;2024-01-11T07:58:44;103464.75;;;-2.15;100.00
75221;BME280;63802;53.232;6.570;2024-01-11T08:01:09;103476.66;;;-2.11;100.00
75221;BME280;63802;53.232;6.570;2024-01-11T08:03:35;103470.69;;;-2.07;100.00
75221;BME280;63802;53.232;6.570;2024-01-11T08:06:01;103464.50;;;-2.07;100.00
75221;BME280;63802;53.232;6.570;2024-01-11T08:08:29;103471.66;;;-2.01;100.00
75221;BME280;63802;53.232;6.570;2024-01-11T08:10:55;103466.91;;;-1.99;100.00
75221;BME280;63802;53.232;6.570;2024-01-11T08:13:20;103482.75;;;-1.91;100.00
75221;BME280;63802;53.232;6.570;2024-01-11T08:15:47;103454.38;;;-1.98;100.00
75221;BME280;63802;53.232;6.570;2024-01-11T08:18:12;103467.28;;;-1.89;100.00
75221;BME280;63802;53.232;6.570;2024-01-11T08:20:39;103456.22;;;-1.92;100.00
75221;BME280;63802;53.232;6.570;2024-01-11T08:23:04;103473.41;;;-1.75;100.00
75221;BME280;63802;53.232;6.570;2024-01-11T08:25:30;103474.19;;;-1.75;100.00
75221;BME280;63802;53.232;6.570;2024-01-11T08:27:55;103471.69;;;-1.70;100.00
75221;BME280;63802;53.232;6.570;2024-01-11T08:30:21;103474.56;;;-1.65;100.00
75221;BME280;63802;53.232;6.570;2024-01-11T08:32:46;103465.94;;;-1.67;100.00
75221;BME280;63802;53.232;6.570;2024-01-11T08:35:12;103466.75;;;-1.66;100.00
75221;BME280;63802;53.232;6.570;2024-01-11T08:37:37;103470.41;;;-1.61;100.00
75221;BME280;63802;53.232;6.570;2024-01-11T08:40:04;103474.03;;;-1.49;100.00
75221;BME280;63802;53.232;6.570;2024-01-11T08:42:31;103476.88;;;-1.44;100.00
75221;BME280;63802;53.232;6.570;2024-01-11T08:44:57;103467.81;;;-1.43;100.00
75221;BME280;63802;53.232;6.570;2024-01-11T08:47:22;103470.25;;;-1.34;100.00
75221;BME280;63802;53.232;6.570;2024-01-11T08:49:48;103440.16;;;-1.37;100.00
75221;BME280;63802;53.232;6.570;2024-01-11T08:52:16;103451.63;;;-1.29;100.00
75221;BME280;63802;53.232;6.570;2024-01-11T08:54:42;103430.22;;;-1.29;100.00
75221;BME280;63802;53.232;6.570;2024-01-11T08:57:07;103431.78;;;-1.22;100.00
75221;BME280;63802;53.232;6.570;2024-01-11T08:59:33;103428.47;;;-1.17;100.00
75221;BME280;63802;53.232;6.570;2024-01-11T09:01:58;103464.97;;;-0.98;100.00
75221;BME280;63802;53.232;6.570;2024-01-11T09:04:23;103449.56;;;-1.03;100.00
75221;BME280;63802;53.232;6.570;2024-01-11T09:06:49;103459.84;;;-1.00;100.00
75221;BME280;63802;53.232;6.570;2024-01-11T09:09:14;103465.34;;;-0.95;100.00
75221;BME280;63802;53.232;6.570;2024-01-11T09:11:40;103470.81;;;-0.83;100.00
75221;BME280;63802;53.232;6.570;2024-01-11T09:14:06;103461.59;;;-0.87;100.00
75221;BME280;63802;53.232;6.570;2024-01-11T09:16:35;103450.69;;;-0.92;100.00
75221;BME280;63802;53.232;6.570;2024-01-11T09:19:01;103453.31;;;-0.86;100.00
75221;BME280;63802;53.232;6.570;2024-01-11T09:21:26;103449.53;;;-0.78;100.00
75221;BME280;63802;53.232;6.570;2024-01-11T09:23:52;103467.53;;;-0.67;100.00
75221;BME280;63802;53.232;6.570;2024-01-11T09:26:17;103459.66;;;-0.62;100.00
75221;BME280;63802;53.232;6.570;2024-01-11T09:28:43;103465.75;;;-0.55;100.00
75221;BME280;63802;53.232;6.570;2024-01-11T09:31:08;103458.78;;;-0.56;100.00
75221;BME280;63802;53.232;6.570;2024-01-11T09:33:34;103471.88;;;-0.48;100.00
75221;BME280;63802;53.232;6.570;2024-01-11T09:35:59;103480.69;;;-0.41;100.00
75221;BME280;63802;53.232;6.570;2024-01-11T09:38:27;103495.88;;;-0.35;100.00
75221;BME280;63802;53.232;6.570;2024-01-11T09:41:05;103487.69;;;-0.40;100.00
75221;BME280;63802;53.232;6.570;2024-01-11T09:43:34;103493.84;;;-0.21;100.00
75221;BME280;63802;53.232;6.570;2024-01-11T09:46:03;103484.34;;;-0.17;100.00
75221;BME280;63802;53.232;6.570;2024-01-11T09:48:29;103476.78;;;-0.09;100.00
75221;BME280;63802;53.232;6.570;2024-01-11T09:50:57;103488.41;;;0.04;100.00
75221;BME280;63802;53.232;6.570;2024-01-11T09:53:24;103483.16;;;0.09;100.00
75221;BME280;63802;53.232;6.570;2024-01-11T09:55:53;103495.56;;;0.10;100.00
75221;BME280;63802;53.232;6.570;2024-01-11T09:58:19;103483.03;;;0.04;100.00
75221;BME280;63802;53.232;6.570;2024-01-11T10:00:46;103484.44;;;0.06;100.00
75221;BME280;63802;53.232;6.570;2024-01-11T10:03:14;103491.81;;;0.11;100.00
75221;BME280;63802;53.232;6.570;2024-01-11T10:05:41;103483.91;;;0.16;100.00
75221;BME280;63802;53.232;6.570;2024-01-11T10:08:07;103479.13;;;0.18;100.00
75221;BME280;63802;53.232;6.570;2024-01-11T10:10:33;103485.59;;;0.28;100.00
75221;BME280;63802;53.232;6.570;2024-01-11T10:13:02;103492.38;;;0.31;100.00
75221;BME280;63802;53.232;6.570;2024-01-11T10:15:27;103479.16;;;0.29;100.00
75221;BME280;63802;53.232;6.570;2024-01-11T10:17:53;103480.34;;;0.33;100.00
75221;BME280;63802;53.232;6.570;2024-01-11T10:20:21;103482.81;;;0.35;100.00
75221;BME280;63802;53.232;6.570;2024-01-11T10:22:49;103487.88;;;0.43;100.00
75221;BME280;63802;53.232;6.570;2024-01-11T10:25:16;103482.00;;;0.46;100.00
75221;BME280;63802;53.232;6.570;2024-01-11T10:27:44;103490.19;;;0.51;100.00
75221;BME280;63802;53.232;6.570;2024-01-11T10:30:11;103481.56;;;0.49;100.00
75221;BME280;63802;53.232;6.570;2024-01-11T10:32:44;103484.25;;;0.49;100.00
75221;BME280;63802;53.232;6.570;2024-01-11T10:35:10;103475.16;;;0.50;100.00
75221;BME280;63802;53.232;6.570;2024-01-11T10:37:36;103473.38;;;0.55;100.00
75221;BME280;63802;53.232;6.570;2024-01-11T10:40:05;103479.59;;;0.56;100.00
75221;BME280;63802;53.232;6.570;2024-01-11T10:42:35;103472.72;;;0.60;100.00
75221;BME280;63802;53.232;6.570;2024-01-11T10:45:03;103476.91;;;0.56;100.00
75221;BME280;63802;53.232;6.570;2024-01-11T10:47:31;103479.13;;;0.59;100.00
75221;BME280;63802;53.232;6.570;2024-01-11T10:50:00;103458.06;;;0.44;100.00
75221;BME280;63802;53.232;6.570;2024-01-11T10:52:36;103488.38;;;0.63;100.00
75221;BME280;63802;53.232;6.570;2024-01-11T10:55:06;103484.63;;;0.64;100.00
75221;BME280;63802;53.232;6.570;2024-01-11T10:57:35;103490.59;;;0.66;100.00
75221;BME280;63802;53.232;6.570;2024-01-11T11:00:01;103481.72;;;0.65;100.00
75221;BME280;63802;53.232;6.570;2024-01-11T11:02:29;103482.56;;;0.78;100.00
75221;BME280;63802;53.232;6.570;2024-01-11T11:04:55;103470.84;;;0.72;100.00
75221;BME280;63802;53.232;6.570;2024-01-11T11:07:22;103472.81;;;0.65;100.00
75221;BME280;63802;53.232;6.570;2024-01-11T11:09:49;103481.72;;;0.77;100.00
75221;BME280;63802;53.232;6.570;2024-01-11T11:12:17;103473.66;;;0.77;100.00
75221;BME280;63802;53.232;6.570;2024-01-11T11:14:46;103446.19;;;0.63;100.00
75221;BME280;63802;53.232;6.570;2024-01-11T11:17:14;103429.03;;;0.64;100.00
75221;BME280;63802;53.232;6.570;2024-01-11T11:19:40;103451.25;;;0.83;100.00
75221;BME280;63802;53.232;6.570;2024-01-11T11:22:06;103474.41;;;0.96;100.00
75221;BME280;63802;53.232;6.570;2024-01-11T11:24:34;103476.03;;;0.97;100.00
75221;BME280;63802;53.232;6.570;2024-01-11T11:27:00;103466.09;;;0.97;100.00
75221;BME280;63802;53.232;6.570;2024-01-11T11:29:26;103457.78;;;0.99;100.00
75221;BME280;63802;53.232;6.570;2024-01-11T11:31:51;103463.06;;;1.05;100.00
75221;BME280;63802;53.232;6.570;2024-01-11T11:34:45;103462.47;;;1.03;100.00
75221;BME280;63802;53.232;6.570;2024-01-11T11:37:11;103438.06;;;0.93;100.00
75221;BME280;63802;53.232;6.570;2024-01-11T11:39:37;103462.13;;;1.11;100.00
75221;BME280;63802;53.232;6.570;2024-01-11T11:42:04;103461.66;;;1.14;100.00
75221;BME280;63802;53.232;6.570;2024-01-11T11:44:30;103458.72;;;1.16;100.00
75221;BME280;63802;53.232;6.570;2024-01-11T11:47:19;103468.31;;;1.12;100.00
75221;BME280;63802;53.232;6.570;2024-01-11T11:50:04;103467.38;;;1.06;100.00
75221;BME280;63802;53.232;6.570;2024-01-11T11:52:34;103456.88;;;1.05;100.00
75221;BME280;63802;53.232;6.570;2024-01-11T11:55:01;103458.97;;;1.03;100.00
75221;BME280;63802;53.232;6.570;2024-01-11T11:57:28;103447.88;;;0.99;100.00
75221;BME280;63802;53.232;6.570;2024-01-11T11:59:56;103459.31;;;1.06;100.00
75221;BME280;63802;53.232;6.570;2024-01-11T12:02:22;103436.78;;;0.96;100.00
75221;BME280;63802;53.232;6.570;2024-01-11T12:04:48;103414.56;;;0.89;100.00
75221;BME280;63802;53.232;6.570;2024-01-11T12:07:14;103431.97;;;1.09;100.00
75221;BME280;63802;53.232;6.570;2024-01-11T12:09:41;103426.13;;;1.12;100.00
75221;BME280;63802;53.232;6.570;2024-01-11T12:12:06;103414.78;;;1.10;100.00
75221;BME280;63802;53.232;6.570;2024-01-11T12:14:32;103420.25;;;1.15;100.00
75221;BME280;63802;53.232;6.570;2024-01-11T12:16:58;103422.94;;;1.15;100.00
75221;BME280;63802;53.232;6.570;2024-01-11T12:19:24;103424.22;;;1.13;100.00
75221;BME280;63802;53.232;6.570;2024-01-11T12:21:50;103394.09;;;0.99;100.00
75221;BME280;63802;53.232;6.570;2024-01-11T12:24:16;103422.38;;;1.13;100.00
75221;BME280;63802;53.232;6.570;2024-01-11T12:26:43;103405.78;;;1.16;100.00
75221;BME280;63802;53.232;6.570;2024-01-11T12:29:09;103384.41;;;1.10;100.00
75221;BME280;63802;53.232;6.570;2024-01-11T12:31:35;103400.63;;;1.26;100.00
75221;BME280;63802;53.232;6.570;2024-01-11T12:34:02;103395.25;;;1.26;100.00
75221;BME280;63802;53.232;6.570;2024-01-11T12:36:28;103368.13;;;1.16;100.00
75221;BME280;63802;53.232;6.570;2024-01-11T12:38:54;103379.94;;;1.27;100.00